Weather at Copenhagen Roskilde Airport

Public forecast

Using degrees Celsius for public forecast. Weather courtesy of forecast.io.

Current aviation weather report (METAR) for Copenhagen Roskilde Airport

2024/05/21 00:20 (retrieved 11 minutes ago)

EKRK 210020Z AUTO 07008KT 9999 BKN083/// 14/09 Q1017

Closest aviation forecast (TAF) to Copenhagen Roskilde Airport

Closest forecast is Leeuwarden Air Base, 263.6 nm (488.3 km) WSW.

2024/05/20 21:06 (retrieved 3 hours ago)

TAF TAF EHLW 202031Z 2021/2109 07006KT 9999 CAVOK PROB30 2021/2103 4000 BR MIFG PROB30 TEMPO 2104/2106 SCT005